Time;durP1;ratioP1;P1;durP2;ratioP2;P2;SDS_P1;SDS_P2;PMS_P1;PMS_P2;Temp;Humidity;BMP_temperature;BMP_pressure;BME280_temperature;BME280_humidity;BME280_pressure;Samples;Min_cycle;Max_cycle;Signal;HPM_P1;HPM_P2
2022/04/29 00:00:16;;;;;;;11.10;8.70;;;5.20;99.90;;;;;;5114381;28;20199;-73
2022/04/29 00:02:43;;;;;;;13.10;9.77;;;5.10;99.90;;;;;;5114241;28;20662;-73
2022/04/29 00:05:11;;;;;;;11.63;10.07;;;5.00;99.90;;;;;;5114724;28;20196;-72
2022/04/29 00:07:38;;;;;;;12.43;10.57;;;5.10;99.90;;;;;;5114234;28;20215;-73
2022/04/29 00:10:07;;;;;;;12.90;10.83;;;5.20;99.90;;;;;;5114189;28;20245;-73
2022/04/29 00:12:35;;;;;;;15.43;11.67;;;5.20;99.90;;;;;;5114247;28;20199;-73
2022/04/29 00:15:02;;;;;;;10.73;9.63;;;5.00;99.90;;;;;;5113974;28;20604;-73
2022/04/29 00:17:30;;;;;;;11.67;10.17;;;5.00;99.90;;;;;;5114291;28;20202;-74
2022/04/29 00:19:56;;;;;;;11.60;10.40;;;5.00;99.90;;;;;;5114206;28;20207;-74
2022/04/29 00:22:23;;;;;;;11.47;9.43;;;5.10;99.90;;;;;;5114096;28;20248;-73
2022/04/29 00:24:50;;;;;;;10.90;9.77;;;5.10;99.90;;;;;;5114035;28;20202;-73
2022/04/29 00:27:17;;;;;;;11.67;9.87;;;5.10;99.90;;;;;;5113691;28;20221;-73
2022/04/29 00:29:45;;;;;;;11.90;10.47;;;5.00;99.90;;;;;;5113778;28;20654;-73
2022/04/29 00:32:11;;;;;;;12.10;10.90;;;5.10;99.90;;;;;;5113888;28;20256;-73
2022/04/29 00:34:38;;;;;;;12.77;11.47;;;5.10;99.90;;;;;;5113881;28;20195;-73
2022/04/29 00:37:05;;;;;;;12.87;10.87;;;5.00;99.90;;;;;;5113905;28;20229;-73
2022/04/29 00:39:32;;;;;;;12.07;10.93;;;4.90;99.90;;;;;;5113910;28;20210;-73
2022/04/29 00:41:59;;;;;;;11.70;10.60;;;5.00;99.90;;;;;;5113750;28;20335;-73
2022/04/29 00:44:26;;;;;;;11.83;10.63;;;5.00;99.90;;;;;;5113980;28;20661;-73
2022/04/29 00:46:54;;;;;;;11.43;10.23;;;5.00;99.90;;;;;;5113948;28;20202;-73
2022/04/29 00:49:20;;;;;;;12.50;11.20;;;4.90;99.90;;;;;;5113909;28;20291;-73
2022/04/29 00:51:49;;;;;;;13.57;11.47;;;4.70;99.90;;;;;;5119832;28;20233;-73
2022/04/29 00:54:23;;;;;;;12.70;11.43;;;4.80;99.90;;;;;;5121271;28;20210;-74
2022/04/29 00:56:53;;;;;;;13.07;11.73;;;5.00;99.90;;;;;;5122316;28;20231;-74
2022/04/29 00:59:25;;;;;;;12.43;11.23;;;4.80;99.90;;;;;;5117488;28;20715;-73
2022/04/29 01:01:56;;;;;;;15.77;11.93;;;4.70;99.90;;;;;;5114077;28;20271;-73
2022/04/29 01:04:25;;;;;;;12.33;10.90;;;4.70;99.90;;;;;;5113614;28;20245;-73
2022/04/29 01:06:52;;;;;;;12.13;10.93;;;4.60;99.90;;;;;;5113528;28;20582;-72
2022/04/29 01:09:19;;;;;;;12.77;11.47;;;4.90;99.90;;;;;;5117695;28;20234;-73
2022/04/29 01:11:46;;;;;;;11.50;10.43;;;5.00;99.90;;;;;;5117967;28;20193;-73
2022/04/29 01:14:13;;;;;;;12.83;10.23;;;4.80;99.90;;;;;;5118062;28;20196;-73
2022/04/29 01:16:41;;;;;;;12.07;10.77;;;4.90;99.90;;;;;;5117725;28;20202;-73
2022/04/29 01:19:09;;;;;;;12.80;11.27;;;4.80;99.90;;;;;;5117670;28;20285;-72
2022/04/29 01:21:36;;;;;;;12.40;11.10;;;4.70;99.90;;;;;;5117377;28;20206;-73
2022/04/29 01:24:04;;;;;;;15.17;11.63;;;4.80;99.90;;;;;;5117310;28;20199;-73
2022/04/29 01:26:31;;;;;;;14.13;11.20;;;4.90;99.90;;;;;;5117540;28;20232;-73
2022/04/29 01:28:59;;;;;;;13.23;11.20;;;4.90;99.90;;;;;;5117371;28;20625;-73
2022/04/29 01:31:28;;;;;;;12.30;11.00;;;4.80;99.90;;;;;;5117410;28;20191;-73
2022/04/29 01:33:55;;;;;;;12.30;11.10;;;4.60;99.90;;;;;;5117250;28;20738;-73
2022/04/29 01:36:21;;;;;;;12.23;10.53;;;4.60;99.90;;;;;;5118218;28;20203;-73
2022/04/29 01:38:48;;;;;;;11.37;10.27;;;4.40;99.90;;;;;;5117310;28;20616;-73
2022/04/29 01:41:16;;;;;;;11.70;10.47;;;4.40;99.90;;;;;;5117499;28;20238;-73
2022/04/29 01:43:43;;;;;;;15.60;11.50;;;4.70;99.90;;;;;;5117165;28;20198;-73
2022/04/29 01:46:09;;;;;;;14.07;11.00;;;4.80;99.90;;;;;;5117010;28;20202;-73
2022/04/29 01:48:38;;;;;;;13.37;11.20;;;4.90;99.90;;;;;;5116744;28;20221;-73
2022/04/29 01:51:06;;;;;;;12.80;10.97;;;5.00;99.90;;;;;;5116985;28;20230;-74
2022/04/29 01:53:33;;;;;;;12.73;11.37;;;4.90;99.90;;;;;;5117123;28;20246;-73
2022/04/29 01:56:00;;;;;;;12.87;11.30;;;4.60;99.90;;;;;;5117159;28;20197;-73
2022/04/29 01:58:28;;;;;;;12.67;10.67;;;4.50;99.90;;;;;;5117231;28;20232;-73
2022/04/29 02:00:54;;;;;;;12.13;10.83;;;4.40;99.90;;;;;;5117002;28;20567;-73
2022/04/29 02:03:21;;;;;;;13.10;11.70;;;4.30;99.90;;;;;;5116816;28;20201;-74
2022/04/29 02:05:48;;;;;;;13.97;11.00;;;4.20;99.90;;;;;;5116816;28;20203;-73
2022/04/29 02:08:15;;;;;;;12.47;11.17;;;4.20;99.90;;;;;;5116775;28;20532;-73
2022/04/29 02:10:42;;;;;;;13.33;11.93;;;4.20;99.90;;;;;;5116722;28;20269;-73
2022/04/29 02:13:09;;;;;;;13.27;11.73;;;4.20;99.90;;;;;;5116469;28;20821;-74
2022/04/29 02:15:37;;;;;;;16.23;12.43;;;4.20;99.90;;;;;;5116344;28;20198;-73
2022/04/29 02:18:04;;;;;;;14.83;12.37;;;4.10;99.90;;;;;;5116444;28;20221;-74
2022/04/29 02:20:31;;;;;;;13.47;12.17;;;4.10;99.90;;;;;;5116585;28;20204;-73
2022/04/29 02:22:58;;;;;;;13.00;11.60;;;4.10;99.90;;;;;;5116489;28;20609;-74
2022/04/29 02:25:25;;;;;;;13.47;12.13;;;4.20;99.90;;;;;;5116413;28;20256;-73
2022/04/29 02:27:51;;;;;;;13.50;12.10;;;4.20;99.90;;;;;;5116514;28;20200;-73
2022/04/29 02:30:18;;;;;;;12.73;11.43;;;4.00;99.90;;;;;;5116065;28;20652;-73
2022/04/29 02:32:46;;;;;;;13.67;11.03;;;4.00;99.90;;;;;;5116235;28;20195;-74
2022/04/29 02:35:12;;;;;;;13.60;11.17;;;3.90;99.90;;;;;;5116499;28;20220;-74
2022/04/29 02:37:39;;;;;;;16.03;10.60;;;3.90;99.90;;;;;;5116314;28;20269;-74
2022/04/29 02:40:07;;;;;;;12.97;10.60;;;3.90;99.90;;;;;;5116967;28;20194;-74
2022/04/29 02:42:34;;;;;;;13.33;11.23;;;3.80;99.90;;;;;;5116951;28;20262;-73
2022/04/29 02:45:00;;;;;;;12.67;10.87;;;3.90;99.90;;;;;;5117136;28;20255;-72
2022/04/29 02:47:27;;;;;;;16.67;11.23;;;4.00;99.90;;;;;;5117280;28;20669;-73
2022/04/29 02:49:55;;;;;;;12.87;11.27;;;4.00;99.90;;;;;;5116696;28;20252;-73
2022/04/29 02:52:22;;;;;;;12.30;11.10;;;3.80;99.90;;;;;;5117083;28;20536;-73
2022/04/29 02:54:49;;;;;;;13.13;11.70;;;3.60;99.90;;;;;;5116996;28;20198;-73
2022/04/29 02:57:16;;;;;;;16.87;11.57;;;3.70;99.90;;;;;;5117294;28;20206;-73
2022/04/29 02:59:42;;;;;;;12.93;11.63;;;3.60;99.90;;;;;;5117274;28;20220;-73
2022/04/29 03:02:09;;;;;;;16.00;11.47;;;3.50;99.90;;;;;;5117113;28;20274;-73
2022/04/29 03:04:36;;;;;;;13.80;12.37;;;3.30;99.90;;;;;;5117799;28;20217;-74
2022/04/29 03:07:04;;;;;;;16.83;12.07;;;3.30;99.90;;;;;;5121935;28;20198;-74
2022/04/29 03:09:31;;;;;;;15.50;12.67;;;3.20;99.90;;;;;;5121051;28;20227;-74
2022/04/29 03:11:58;;;;;;;14.50;12.97;;;3.10;99.90;;;;;;5125986;28;20602;-73
2022/04/29 03:14:24;;;;;;;13.80;12.37;;;3.20;99.90;;;;;;5125903;28;20204;-74
2022/04/29 03:16:51;;;;;;;14.87;13.07;;;3.20;99.90;;;;;;5126320;28;20200;-74
2022/04/29 03:19:18;;;;;;;14.20;12.70;;;3.20;99.90;;;;;;5125203;28;20249;-74
2022/04/29 03:21:45;;;;;;;14.33;12.93;;;3.20;99.90;;;;;;5125054;28;20263;-74
2022/04/29 03:24:13;;;;;;;16.13;13.43;;;3.30;99.90;;;;;;5116908;28;20245;-74
2022/04/29 03:26:40;;;;;;;16.47;12.77;;;3.20;99.90;;;;;;5115975;28;20216;-74
2022/04/29 03:29:07;;;;;;;14.87;13.27;;;3.20;99.90;;;;;;5115673;28;20199;-73
2022/04/29 03:31:33;;;;;;;16.93;14.03;;;3.10;99.90;;;;;;5114822;28;20193;-74
2022/04/29 03:34:00;;;;;;;14.57;13.03;;;3.10;99.90;;;;;;5115872;28;20195;-74
2022/04/29 03:36:27;;;;;;;14.17;12.77;;;3.10;99.90;;;;;;5115229;28;20195;-73
2022/04/29 03:38:53;;;;;;;15.57;13.70;;;3.10;99.90;;;;;;5115125;28;20224;-72
2022/04/29 03:41:21;;;;;;;17.27;13.67;;;3.20;99.90;;;;;;5115287;28;20197;-73
2022/04/29 03:43:48;;;;;;;16.10;13.67;;;3.50;99.90;;;;;;5115386;28;20245;-73
2022/04/29 03:46:15;;;;;;;14.90;13.30;;;3.50;99.90;;;;;;5115769;28;20245;-73
2022/04/29 03:51:26;;;;;;;14.33;12.83;;;3.30;99.90;;;;;;5114943;28;20235;-73
2022/04/29 03:53:53;;;;;;;20.00;14.17;;;3.40;99.90;;;;;;5114796;28;20629;-73
2022/04/29 03:56:21;;;;;;;17.33;14.60;;;3.40;99.90;;;;;;5114598;28;20197;-72
2022/04/29 03:58:47;;;;;;;17.40;15.50;;;3.40;99.90;;;;;;5114434;28;20217;-73
2022/04/29 04:01:14;;;;;;;18.27;15.90;;;3.50;99.90;;;;;;5114408;28;20195;-73
2022/04/29 04:03:41;;;;;;;18.57;16.50;;;3.50;99.90;;;;;;5114456;28;20253;-73
2022/04/29 04:08:52;;;;;;;20.90;17.40;;;3.50;99.90;;;;;;5114454;28;20276;-73
2022/04/29 04:11:19;;;;;;;20.07;17.63;;;3.60;99.90;;;;;;5114565;28;20194;-73
2022/04/29 04:13:47;;;;;;;19.27;17.27;;;3.50;99.90;;;;;;5114294;28;20532;-73
2022/04/29 04:16:14;;;;;;;19.53;17.40;;;3.40;99.90;;;;;;5114256;28;20643;-73
2022/04/29 04:18:40;;;;;;;20.23;18.03;;;3.50;99.90;;;;;;5114502;28;20219;-73
2022/04/29 04:21:07;;;;;;;19.60;17.23;;;3.40;99.90;;;;;;5114506;28;20201;-73
2022/04/29 04:23:34;;;;;;;18.17;16.27;;;3.40;99.90;;;;;;5114402;28;20200;-73
2022/04/29 04:26:00;;;;;;;16.73;14.53;;;3.40;99.90;;;;;;5114078;28;20532;-73
2022/04/29 04:28:27;;;;;;;15.67;13.93;;;3.60;99.90;;;;;;5114121;28;20250;-73
2022/04/29 04:30:55;;;;;;;19.77;14.47;;;3.80;99.90;;;;;;5110546;28;20253;-73
2022/04/29 04:33:22;;;;;;;16.83;14.43;;;3.90;99.90;;;;;;5105924;28;20201;-73
2022/04/29 04:35:48;;;;;;;20.90;13.70;;;3.90;99.90;;;;;;5099943;28;20193;-73
2022/04/29 04:38:15;;;;;;;20.53;13.40;;;3.80;99.90;;;;;;5107904;28;20328;-72
2022/04/29 04:40:43;;;;;;;17.70;12.77;;;3.70;99.90;;;;;;5121940;28;20202;-73
2022/04/29 04:43:10;;;;;;;16.73;13.17;;;3.70;99.90;;;;;;5120800;28;20285;-73
2022/04/29 04:45:36;;;;;;;16.90;12.47;;;3.80;99.90;;;;;;5122154;28;20199;-73
2022/04/29 04:48:05;;;;;;;13.30;11.90;;;3.90;99.90;;;;;;5120400;28;20249;-74
2022/04/29 04:50:32;;;;;;;16.23;12.30;;;3.90;99.90;;;;;;5113288;28;20232;-74
2022/04/29 04:52:59;;;;;;;15.40;12.57;;;3.90;99.90;;;;;;5113754;28;20244;-74
2022/04/29 04:55:26;;;;;;;18.10;11.40;;;3.90;99.90;;;;;;5113378;28;20601;-74
2022/04/29 04:57:53;;;;;;;18.00;11.80;;;4.00;99.90;;;;;;5113405;28;20201;-74
2022/04/29 05:00:21;;;;;;;13.33;11.23;;;4.10;99.90;;;;;;5112983;28;20223;-75
2022/04/29 05:02:48;;;;;;;19.47;11.27;;;4.10;99.90;;;;;;5113746;28;20267;-73
2022/04/29 05:05:16;;;;;;;16.10;10.77;;;4.20;99.90;;;;;;5113833;28;20206;-73
2022/04/29 05:07:42;;;;;;;12.07;10.83;;;4.30;99.90;;;;;;5113412;28;20198;-74
2022/04/29 05:10:10;;;;;;;12.57;10.93;;;4.40;99.90;;;;;;5112986;28;20653;-74
2022/04/29 05:12:41;;;;;;;17.13;10.50;;;4.50;99.90;;;;;;5113188;28;20536;-73
2022/04/29 05:15:09;;;;;;;13.60;10.67;;;4.70;99.90;;;;;;5113398;28;20198;-73
2022/04/29 05:17:38;;;;;;;12.07;10.17;;;4.80;99.90;;;;;;5113527;28;20199;-74
2022/04/29 05:20:06;;;;;;;13.10;9.77;;;5.00;99.90;;;;;;5113113;28;20646;-74
2022/04/29 05:22:34;;;;;;;12.97;10.00;;;5.10;99.90;;;;;;5112648;28;20229;-74
2022/04/29 05:25:01;;;;;;;11.93;10.00;;;5.30;99.90;;;;;;5113301;28;20196;-75
2022/04/29 05:27:27;;;;;;;12.93;10.20;;;5.50;99.90;;;;;;5113314;28;20196;-75
2022/04/29 05:29:54;;;;;;;12.70;9.93;;;5.70;99.90;;;;;;5113435;28;20200;-75
2022/04/29 05:32:21;;;;;;;12.63;9.17;;;5.90;99.90;;;;;;5113242;28;20540;-74
2022/04/29 05:34:48;;;;;;;10.87;9.00;;;6.10;99.90;;;;;;5113494;28;20195;-74
2022/04/29 05:37:15;;;;;;;9.90;8.53;;;6.20;99.90;;;;;;5108850;28;21635;-74
2022/04/29 05:42:27;;;;;;;12.00;9.37;;;6.50;99.90;;;;;;5113490;28;20555;-74
2022/04/29 05:44:54;;;;;;;12.67;9.37;;;6.70;99.90;;;;;;5113545;28;20255;-74
2022/04/29 05:47:21;;;;;;;9.67;8.73;;;6.80;99.90;;;;;;5113549;28;20212;-74
2022/04/29 05:49:48;;;;;;;10.27;9.17;;;6.90;99.90;;;;;;5113406;28;20253;-74
2022/04/29 05:52:16;;;;;;;9.40;8.50;;;7.10;99.90;;;;;;5113468;28;20199;-74
2022/04/29 05:54:43;;;;;;;13.17;9.40;;;7.10;99.90;;;;;;5116569;28;20195;-74
2022/04/29 05:57:11;;;;;;;11.30;8.80;;;7.30;99.90;;;;;;5117698;28;20435;-74
2022/04/29 05:59:38;;;;;;;9.33;8.40;;;7.60;99.90;;;;;;5116857;28;20671;-74
2022/04/29 06:02:05;;;;;;;9.97;8.93;;;7.70;99.90;;;;;;5116759;28;20719;-74
2022/04/29 06:04:32;;;;;;;11.80;8.70;;;7.80;99.90;;;;;;5117205;28;20210;-74
2022/04/29 06:06:59;;;;;;;10.63;8.77;;;8.00;99.90;;;;;;5117158;28;20205;-74
2022/04/29 06:09:26;;;;;;;12.53;9.17;;;8.00;99.90;;;;;;5116983;28;20601;-74
2022/04/29 06:11:54;;;;;;;12.13;8.80;;;8.20;99.90;;;;;;5117125;28;20550;-74
2022/04/29 06:14:21;;;;;;;12.47;9.03;;;8.30;99.90;;;;;;5117302;28;20254;-74
2022/04/29 06:16:47;;;;;;;9.47;8.53;;;8.30;99.90;;;;;;5123162;28;20237;-75
2022/04/29 06:19:14;;;;;;;10.27;8.70;;;8.40;99.90;;;;;;5122916;28;20220;-74
2022/04/29 06:21:41;;;;;;;11.03;8.80;;;8.50;99.90;;;;;;5121160;28;20605;-73
2022/04/29 06:24:08;;;;;;;10.80;8.87;;;8.60;99.90;;;;;;5127604;28;20287;-73
2022/04/29 06:26:35;;;;;;;11.20;8.50;;;8.70;99.90;;;;;;5124567;28;20283;-73
2022/04/29 06:29:03;;;;;;;10.17;9.17;;;8.90;99.90;;;;;;5117292;28;20206;-74
2022/04/29 06:31:30;;;;;;;11.50;9.47;;;9.00;99.90;;;;;;5117410;28;20195;-74
2022/04/29 06:33:57;;;;;;;10.23;9.23;;;9.20;99.90;;;;;;5116991;28;20265;-74
2022/04/29 06:36:23;;;;;;;10.63;9.63;;;9.30;99.90;;;;;;5117392;28;20196;-73
2022/04/29 06:38:50;;;;;;;10.50;9.20;;;9.30;99.90;;;;;;5116576;28;20336;-74
2022/04/29 06:41:17;;;;;;;11.43;9.67;;;9.30;99.90;;;;;;5119586;28;20196;-74
2022/04/29 06:43:43;;;;;;;11.33;10.00;;;9.40;99.90;;;;;;5120627;28;20192;-74
2022/04/29 06:46:11;;;;;;;13.77;9.87;;;9.50;99.90;;;;;;5118129;28;20232;-74
2022/04/29 06:48:38;;;;;;;13.03;10.77;;;9.70;99.90;;;;;;5124376;28;20192;-74
2022/04/29 06:51:05;;;;;;;12.90;10.53;;;9.80;99.90;;;;;;5124817;28;20231;-75
2022/04/29 06:53:33;;;;;;;16.80;10.90;;;9.90;99.90;;;;;;5124648;28;20195;-74
2022/04/29 06:55:59;;;;;;;14.33;10.33;;;10.00;99.90;;;;;;5125194;28;20196;-75
2022/04/29 06:58:26;;;;;;;14.40;10.50;;;10.00;99.90;;;;;;5124240;28;20252;-75
2022/04/29 07:00:53;;;;;;;11.87;10.57;;;10.30;99.90;;;;;;5123236;28;20223;-74
2022/04/29 07:03:21;;;;;;;14.67;11.00;;;10.50;99.90;;;;;;5123371;28;20253;-75
2022/04/29 07:05:47;;;;;;;16.30;11.17;;;10.70;99.90;;;;;;5121989;28;20253;-76
2022/04/29 07:08:15;;;;;;;19.40;12.20;;;10.80;99.90;;;;;;5121647;28;20540;-74
2022/04/29 07:10:42;;;;;;;16.30;11.93;;;11.00;99.90;;;;;;5120632;28;20192;-74
2022/04/29 07:13:09;;;;;;;15.87;11.03;;;11.20;99.90;;;;;;5121476;28;20714;-76
2022/04/29 07:15:37;;;;;;;13.37;11.50;;;11.40;99.90;;;;;;5121791;28;20195;-75
2022/04/29 07:18:04;;;;;;;13.30;10.50;;;11.60;99.90;;;;;;5120266;28;20199;-73
2022/04/29 07:20:32;;;;;;;19.07;10.57;;;11.80;99.90;;;;;;5116983;28;20231;-74
2022/04/29 07:22:59;;;;;;;12.33;11.03;;;12.10;99.90;;;;;;5117409;28;20238;-76
2022/04/29 07:25:26;;;;;;;11.80;9.93;;;12.40;99.90;;;;;;5122837;28;20192;-78
2022/04/29 07:27:52;;;;;;;11.90;10.67;;;12.60;99.90;;;;;;5121100;28;20203;-74
2022/04/29 07:30:19;;;;;;;12.77;10.80;;;12.80;99.90;;;;;;5120289;28;20208;-75
2022/04/29 07:32:46;;;;;;;13.33;10.67;;;13.00;99.90;;;;;;5119407;28;20712;-74
2022/04/29 07:43:27;;;;;;;10.97;9.50;;;13.90;99.90;;;;;;5115187;28;20226;-75
2022/04/29 07:45:54;;;;;;;12.33;9.70;;;14.10;99.90;;;;;;5114634;28;20192;-74
2022/04/29 07:48:22;;;;;;;10.43;9.23;;;14.50;99.90;;;;;;5114316;28;20602;-75
2022/04/29 07:50:49;;;;;;;10.40;9.30;;;14.70;99.90;;;;;;5114274;28;20649;-75
2022/04/29 07:53:18;;;;;;;10.83;8.93;;;14.90;99.90;;;;;;5114061;28;20196;-75
2022/04/29 07:55:45;;;;;;;11.70;8.90;;;15.20;96.30;;;;;;5114380;28;20196;-74
2022/04/29 07:58:12;;;;;;;8.70;7.80;;;15.40;91.70;;;;;;5114195;28;20196;-74
2022/04/29 08:00:39;;;;;;;9.50;8.33;;;15.60;82.20;;;;;;5113967;28;20219;-75
2022/04/29 08:03:06;;;;;;;8.63;7.60;;;15.80;79.00;;;;;;5114049;28;20221;-75
2022/04/29 08:05:33;;;;;;;8.40;7.60;;;16.00;79.00;;;;;;5113781;28;20196;-75
2022/04/29 08:08:00;;;;;;;8.23;7.53;;;16.30;73.30;;;;;;5114024;28;20199;-74
2022/04/29 08:10:29;;;;;;;9.23;7.28;;;16.60;67.60;;;;;;5113914;28;20274;-75
2022/04/29 08:12:57;;;;;;;8.02;7.22;;;16.80;62.10;;;;;;5113702;28;20229;-73
2022/04/29 08:15:24;;;;;;;8.05;7.30;;;17.00;62.40;;;;;;5113911;28;20198;-74
2022/04/29 08:17:51;;;;;;;7.07;6.47;;;17.00;55.80;;;;;;5113429;28;20192;-73
2022/04/29 08:20:17;;;;;;;7.00;6.40;;;17.10;50.30;;;;;;5113356;28;20219;-73
2022/04/29 08:22:44;;;;;;;7.20;6.53;;;17.20;51.50;;;;;;5113513;28;20580;-74
2022/04/29 08:25:11;;;;;;;7.65;6.60;;;17.20;49.20;;;;;;5113466;28;20562;-73
2022/04/29 08:27:39;;;;;;;7.93;7.13;;;17.10;49.20;;;;;;5113410;28;20724;-73
2022/04/29 08:30:08;;;;;;;7.20;6.50;;;17.10;47.20;;;;;;5113492;28;20225;-73
2022/04/29 08:32:39;;;;;;;7.28;6.25;;;17.20;47.30;;;;;;5113326;28;20204;-73
2022/04/29 08:35:07;;;;;;;7.32;6.63;;;17.70;47.20;;;;;;5113318;28;20651;-73
2022/04/29 08:37:34;;;;;;;7.43;6.53;;;18.10;48.00;;;;;;5113394;28;20191;-73
2022/04/29 08:40:00;;;;;;;7.30;6.70;;;18.30;42.20;;;;;;5113289;28;20292;-73
2022/04/29 08:42:28;;;;;;;6.60;5.78;;;18.70;43.80;;;;;;5113398;28;20278;-74
2022/04/29 08:44:59;;;;;;;7.40;5.90;;;18.70;43.60;;;;;;5113258;28;20245;-74
2022/04/29 08:47:27;;;;;;;6.53;4.78;;;19.20;40.40;;;;;;5113467;28;20286;-74
2022/04/29 08:49:55;;;;;;;5.20;4.80;;;19.60;36.10;;;;;;5113117;28;20594;-74
2022/04/29 08:52:22;;;;;;;5.47;4.78;;;19.90;33.50;;;;;;5113176;28;20199;-73
2022/04/29 09:00:25;;;;;;;12.13;5.25;;;19.90;28.60;;;;;;5113225;28;20349;-73
2022/04/29 09:02:52;;;;;;;5.28;4.78;;;20.10;29.90;;;;;;5113230;28;20203;-74
2022/04/29 09:05:18;;;;;;;6.05;5.45;;;20.10;29.00;;;;;;5113051;28;20195;-73
2022/04/29 09:07:56;;;;;;;5.50;5.00;;;20.20;28.90;;;;;;5113088;28;20196;-73
2022/04/29 09:10:23;;;;;;;6.07;4.80;;;20.40;27.80;;;;;;5112930;28;20647;-73
2022/04/29 09:12:51;;;;;;;5.93;5.40;;;20.10;27.10;;;;;;5113100;28;20662;-74
2022/04/29 09:15:18;;;;;;;7.20;5.00;;;20.20;27.50;;;;;;5113094;28;20260;-74
2022/04/29 09:17:47;;;;;;;5.30;4.88;;;20.70;27.90;;;;;;5113272;28;20207;-74
2022/04/29 09:20:16;;;;;;;5.80;5.03;;;20.60;26.70;;;;;;5112786;28;20216;-73
2022/04/29 09:22:46;;;;;;;5.68;5.18;;;20.50;27.10;;;;;;5112876;28;20211;-74
2022/04/29 09:25:13;;;;;;;5.45;4.95;;;19.90;27.30;;;;;;5113020;28;20211;-74
2022/04/29 09:28:01;;;;;;;5.20;4.70;;;20.40;28.30;;;;;;5113232;28;20195;-74
2022/04/29 09:30:39;;;;;;;6.22;4.90;;;21.00;27.20;;;;;;5116940;28;20195;-74
2022/04/29 09:33:08;;;;;;;6.30;4.50;;;21.20;25.50;;;;;;5116819;28;20199;-75
2022/04/29 09:35:36;;;;;;;5.85;4.72;;;21.00;24.20;;;;;;5117159;28;20200;-75
2022/04/29 09:40:48;;;;;;;11.60;5.45;;;20.90;25.00;;;;;;5116888;28;20284;-74
2022/04/29 09:43:15;;;;;;;5.85;5.00;;;21.20;25.20;;;;;;5116583;28;20200;-74
2022/04/29 09:45:41;;;;;;;5.63;5.13;;;21.20;23.20;;;;;;5116617;28;20287;-74
2022/04/29 09:48:10;;;;;;;6.93;4.97;;;21.30;23.60;;;;;;5116952;28;20203;-74
2022/04/29 09:50:48;;;;;;;7.07;4.55;;;21.40;23.10;;;;;;5116522;28;20590;-74
2022/04/29 09:53:20;;;;;;;5.30;4.80;;;21.90;23.40;;;;;;5116624;28;20205;-74
2022/04/29 09:56:08;;;;;;;6.15;5.18;;;21.30;23.30;;;;;;5116459;28;20196;-74
2022/04/29 09:58:35;;;;;;;7.93;5.32;;;21.70;23.30;;;;;;5116323;28;20593;-74
2022/04/29 10:01:04;;;;;;;7.97;4.78;;;21.90;23.00;;;;;;5116409;28;20628;-74
2022/04/29 10:03:32;;;;;;;5.72;5.05;;;22.40;23.00;;;;;;5116292;28;20290;-74
2022/04/29 10:06:00;;;;;;;5.32;4.82;;;23.10;22.50;;;;;;5116245;28;20192;-74
2022/04/29 10:08:28;;;;;;;5.30;4.78;;;23.10;22.20;;;;;;5116245;28;20196;-74
2022/04/29 10:10:56;;;;;;;5.25;4.55;;;23.10;21.40;;;;;;5116489;28;20195;-74
2022/04/29 10:13:27;;;;;;;6.40;5.30;;;23.30;21.00;;;;;;5116221;28;20674;-74
2022/04/29 10:15:54;;;;;;;7.65;5.68;;;22.20;22.00;;;;;;5116111;28;20196;-74
2022/04/29 10:21:18;;;;;;;5.00;4.60;;;22.70;22.20;;;;;;5076367;28;20224;-74
2022/04/29 10:23:48;;;;;;;5.88;4.90;;;21.90;22.40;;;;;;5116056;28;20191;-74
2022/04/29 10:26:17;;;;;;;5.50;4.88;;;22.90;22.90;;;;;;5115867;28;20200;-74
2022/04/29 10:28:45;;;;;;;4.68;4.28;;;23.40;22.10;;;;;;5115615;28;20200;-74
2022/04/29 10:31:18;;;;;;;5.20;4.63;;;24.10;21.30;;;;;;5116231;28;20199;-74
2022/04/29 10:33:45;;;;;;;5.38;4.97;;;24.10;20.10;;;;;;5115406;28;20551;-74
2022/04/29 10:36:14;;;;;;;5.50;4.93;;;24.50;20.20;;;;;;5115949;28;20192;-74
2022/04/29 10:38:46;;;;;;;6.78;4.45;;;24.60;20.60;;;;;;5115566;28;20215;-74
2022/04/29 10:41:16;;;;;;;5.05;4.43;;;25.20;19.90;;;;;;5113890;28;20227;-74
2022/04/29 10:43:47;;;;;;;4.88;4.47;;;25.10;19.90;;;;;;5115480;28;20294;-75
2022/04/29 10:46:21;;;;;;;5.43;4.65;;;25.10;19.50;;;;;;5115569;28;20196;-74
2022/04/29 10:48:49;;;;;;;5.28;4.50;;;25.30;18.90;;;;;;5115407;28;20604;-75
2022/04/29 10:51:20;;;;;;;5.80;4.80;;;25.50;18.90;;;;;;5115184;28;20234;-75
2022/04/29 10:53:51;;;;;;;5.70;4.57;;;25.40;18.20;;;;;;5115392;28;20283;-74
2022/04/29 10:56:37;;;;;;;5.65;5.15;;;25.40;18.20;;;;;;5115273;28;20199;-75
2022/04/29 10:59:20;;;;;;;5.82;4.88;;;24.80;17.90;;;;;;5115560;28;20195;-75
2022/04/29 11:02:07;;;;;;;6.20;4.53;;;25.10;18.80;;;;;;5115111;28;20227;-75
2022/04/29 11:04:47;;;;;;;5.93;4.82;;;25.10;18.50;;;;;;5114920;28;20655;-75
2022/04/29 11:07:42;;;;;;;5.95;4.72;;;24.90;18.10;;;;;;5115231;28;20199;-74
2022/04/29 11:10:12;;;;;;;6.30;5.03;;;24.20;18.90;;;;;;5114855;28;20200;-74
2022/04/29 11:12:40;;;;;;;5.45;4.72;;;24.80;18.10;;;;;;5114712;28;20253;-74
2022/04/29 11:15:12;;;;;;;7.30;4.90;;;25.00;18.00;;;;;;5114723;28;20558;-74
2022/04/29 11:17:40;;;;;;;5.38;4.88;;;25.40;18.70;;;;;;5114971;28;20207;-75
2022/04/29 11:20:18;;;;;;;7.35;4.90;;;26.00;17.40;;;;;;5114763;28;20248;-75
2022/04/29 11:25:53;;;;;;;5.70;5.20;;;26.30;17.50;;;;;;5114908;28;20772;-74
2022/04/29 11:28:21;;;;;;;6.32;4.65;;;25.70;18.10;;;;;;5114538;28;20217;-75
2022/04/29 11:30:49;;;;;;;5.15;4.55;;;26.70;17.30;;;;;;5114523;28;20196;-75
2022/04/29 11:33:22;;;;;;;5.35;4.85;;;27.40;17.30;;;;;;5114406;28;20276;-74
2022/04/29 11:35:52;;;;;;;5.85;4.70;;;27.10;15.80;;;;;;5114291;28;20667;-75
2022/04/29 11:38:19;;;;;;;5.00;4.50;;;27.40;15.60;;;;;;5114463;28;20196;-75
2022/04/29 11:40:45;;;;;;;7.25;4.20;;;27.30;16.40;;;;;;5103736;28;20220;-77
2022/04/29 11:43:13;;;;;;;6.03;4.90;;;27.90;15.80;;;;;;5092070;28;20598;-76
2022/04/29 11:45:41;;;;;;;5.00;4.57;;;28.50;15.60;;;;;;5100426;28;20196;-76
2022/04/29 11:48:09;;;;;;;5.50;4.97;;;27.40;14.70;;;;;;5092407;28;20197;-76
2022/04/29 11:50:37;;;;;;;6.28;5.00;;;25.40;16.30;;;;;;5092976;28;20614;-75
2022/04/29 11:53:05;;;;;;;6.60;4.57;;;25.80;16.50;;;;;;5103666;28;20207;-75
2022/04/29 11:55:32;;;;;;;6.07;4.63;;;26.10;16.30;;;;;;5106759;28;20674;-75
2022/04/29 11:57:59;;;;;;;4.43;4.10;;;26.70;15.70;;;;;;5092936;28;20250;-76
2022/04/29 12:00:28;;;;;;;8.55;4.43;;;27.70;15.60;;;;;;5093100;28;20219;-76
2022/04/29 12:02:57;;;;;;;5.53;4.07;;;28.40;14.80;;;;;;5092930;28;20958;-75
2022/04/29 12:05:25;;;;;;;4.57;4.18;;;28.90;14.10;;;;;;5093431;28;20261;-75
2022/04/29 12:07:52;;;;;;;5.82;3.55;;;29.40;13.70;;;;;;5092744;28;20195;-76
2022/04/29 12:10:20;;;;;;;5.15;3.75;;;30.30;13.00;;;;;;5093258;28;20207;-75
2022/04/29 12:12:47;;;;;;;5.05;4.22;;;30.60;12.30;;;;;;5093444;28;20211;-75
2022/04/29 12:15:18;;;;;;;6.10;3.78;;;30.40;12.00;;;;;;5093202;28;20210;-75
2022/04/29 12:17:47;;;;;;;4.00;3.70;;;30.70;11.50;;;;;;5093203;28;20792;-75
2022/04/29 12:20:17;;;;;;;5.78;4.00;;;31.30;11.40;;;;;;5093327;28;20280;-75
2022/04/29 12:22:47;;;;;;;10.10;4.13;;;31.40;11.10;;;;;;5092980;28;20827;-76
2022/04/29 12:25:25;;;;;;;5.13;3.70;;;32.10;10.00;;;;;;5092999;28;20273;-76
2022/04/29 12:28:15;;;;;;;4.03;3.58;;;32.80;9.60;;;;;;5092794;28;20524;-75
2022/04/29 12:36:31;;;;;;;6.25;3.80;;;33.20;8.10;;;;;;5093119;28;20198;-75
2022/04/29 12:39:05;;;;;;;3.83;3.33;;;32.90;7.60;;;;;;5092715;28;20647;-75
2022/04/29 12:41:32;;;;;;;3.90;3.60;;;32.60;7.50;;;;;;5092975;28;20195;-76
2022/04/29 12:44:08;;;;;;;4.93;3.78;;;31.40;8.70;;;;;;5092632;28;20598;-76
2022/04/29 12:46:34;;;;;;;4.50;4.10;;;30.50;8.70;;;;;;5092983;28;20290;-76
2022/04/29 12:49:03;;;;;;;4.45;4.05;;;28.00;9.50;;;;;;5092509;28;20195;-75
2022/04/29 12:51:32;;;;;;;4.07;3.67;;;27.70;10.60;;;;;;5092434;28;20281;-75
2022/04/29 12:54:00;;;;;;;4.35;3.95;;;29.30;10.80;;;;;;5092863;28;20618;-76
2022/04/29 12:56:32;;;;;;;4.75;4.13;;;30.40;9.70;;;;;;5092646;28;20191;-76
2022/04/29 12:58:59;;;;;;;3.95;3.58;;;31.00;10.30;;;;;;5092552;28;20210;-75
2022/04/29 13:01:26;;;;;;;4.68;3.78;;;32.10;9.50;;;;;;5092561;28;20635;-76
2022/04/29 13:03:54;;;;;;;4.55;4.07;;;32.90;8.90;;;;;;5091877;28;20200;-76
2022/04/29 13:06:24;;;;;;;4.20;3.90;;;33.30;8.50;;;;;;5092788;28;20245;-76
2022/04/29 13:08:55;;;;;;;4.65;4.28;;;32.50;8.50;;;;;;5092765;28;20199;-76
2022/04/29 13:11:23;;;;;;;4.93;3.85;;;31.90;8.90;;;;;;5092613;28;20212;-75
2022/04/29 13:13:51;;;;;;;4.35;3.95;;;30.40;9.30;;;;;;5092727;28;20238;-76
2022/04/29 13:16:19;;;;;;;3.95;3.55;;;29.70;9.80;;;;;;5092805;28;20195;-76
2022/04/29 13:18:46;;;;;;;4.03;3.72;;;28.90;10.00;;;;;;5092532;28;20268;-76
2022/04/29 13:21:13;;;;;;;3.92;3.60;;;27.80;10.50;;;;;;5092994;28;20205;-75
2022/04/29 13:23:42;;;;;;;6.13;4.07;;;27.50;11.20;;;;;;5092725;28;20594;-76